Time;durP1;ratioP1;P1;durP2;ratioP2;P2;SDS_P1;SDS_P2;PMS_P1;PMS_P2;Temp;Humidity;BMP_temperature;BMP_pressure;BME280_temperature;BME280_humidity;BME280_pressure;Samples;Min_cycle;Max_cycle;Signal;HPM_P1;HPM_P2
2023/11/22 00:02:08;;;;;;;5.47;5.07;;;;;;;5.03;100.00;101892.47;5969234;23;20098;-73
2023/11/22 00:04:34;;;;;;;8.02;7.30;;;;;;;4.49;100.00;101804.56;6018002;23;20031;-73
2023/11/22 00:07:01;;;;;;;5.57;5.18;;;;;;;4.54;100.00;101815.81;5989384;23;20078;-75
2023/11/22 00:09:28;;;;;;;6.35;5.55;;;;;;;4.67;100.00;101835.63;6017074;23;20439;-73
2023/11/22 00:11:54;;;;;;;4.68;4.40;;;;;;;4.95;100.00;101880.44;6025637;23;20042;-75
2023/11/22 00:14:21;;;;;;;6.15;5.57;;;;;;;5.06;100.00;101897.66;5994401;23;20027;-74
2023/11/22 00:16:48;;;;;;;8.00;5.57;;;;;;;4.69;100.00;101838.19;6023150;23;20170;-73
2023/11/22 00:19:17;;;;;;;5.65;5.20;;;;;;;4.93;100.00;101894.31;5988922;23;20537;-73
2023/11/22 00:21:44;;;;;;;6.60;5.32;;;;;;;4.86;100.00;101872.72;6022032;23;20082;-72
2023/11/22 00:24:10;;;;;;;6.88;6.30;;;;;;;4.51;100.00;101831.41;5971292;23;20037;-75
2023/11/22 00:26:37;;;;;;;7.80;7.07;;;;;;;4.66;100.00;101841.69;6015982;23;20122;-73
2023/11/22 00:29:03;;;;;;;6.40;5.75;;;;;;;4.74;100.00;101839.88;6021550;23;20659;-73
2023/11/22 00:31:29;;;;;;;5.93;5.50;;;;;;;4.56;100.00;101827.06;6020073;23;20049;-73
2023/11/22 00:33:56;;;;;;;7.25;6.60;;;;;;;4.69;100.00;101833.00;6019340;23;20054;-74
2023/11/22 00:36:22;;;;;;;6.18;5.60;;;;;;;4.60;100.00;101797.53;6021965;23;20026;-74
2023/11/22 00:38:49;;;;;;;5.65;5.25;;;;;;;4.48;100.00;101771.69;5994707;23;20516;-74
2023/11/22 00:41:15;;;;;;;6.65;6.05;;;;;;;4.18;100.00;101716.50;6021932;23;20023;-72
2023/11/22 00:43:42;;;;;;;7.47;6.07;;;;;;;4.70;100.00;101809.56;6012881;23;20047;-74
2023/11/22 00:46:08;;;;;;;5.72;5.28;;;;;;;4.45;100.00;101790.78;6002969;23;20035;-73
2023/11/22 00:48:35;;;;;;;6.78;6.20;;;;;;;4.95;100.00;101853.53;6023313;23;20086;-73
2023/11/22 00:51:08;;;;;;;6.55;5.95;;;;;;;5.06;100.00;101880.31;6001649;23;20469;-72
2023/11/22 00:53:36;;;;;;;7.30;6.20;;;;;;;4.30;100.00;101760.56;6000135;23;20090;-73
2023/11/22 00:56:06;;;;;;;5.40;5.00;;;;;;;4.58;100.00;101812.31;6024743;23;20453;-72
2023/11/22 00:58:34;;;;;;;8.73;6.88;;;;;;;4.40;100.00;101795.13;6020384;23;21354;-73
2023/11/22 01:01:01;;;;;;;16.33;5.22;;;;;;;4.17;100.00;101759.81;6021293;23;20058;-73
2023/11/22 01:03:27;;;;;;;5.22;4.93;;;;;;;4.65;100.00;101839.97;5997443;23;20027;-72
2023/11/22 01:05:53;;;;;;;5.30;4.88;;;;;;;4.92;100.00;101883.06;6026815;23;20023;-73
2023/11/22 01:08:20;;;;;;;6.22;5.72;;;;;;;4.89;100.00;101882.22;5996305;23;20059;-74
2023/11/22 01:10:47;;;;;;;5.22;4.82;;;;;;;4.50;100.00;101833.16;6026423;23;20039;-73
2023/11/22 01:13:14;;;;;;;6.63;5.68;;;;;;;4.87;100.00;101866.66;6023261;23;20090;-76
2023/11/22 01:15:41;;;;;;;7.15;4.93;;;;;;;4.67;100.00;101830.44;6026051;23;20046;-73
2023/11/22 01:18:10;;;;;;;5.15;4.75;;;;;;;4.07;100.00;101732.19;6023123;23;20021;-73
2023/11/22 01:20:36;;;;;;;6.60;6.10;;;;;;;4.51;100.00;101816.69;5990064;23;20066;-74
2023/11/22 01:23:03;;;;;;;5.47;5.00;;;;;;;4.70;100.00;101853.78;6030283;23;20040;-73
2023/11/22 01:25:29;;;;;;;5.10;4.80;;;;;;;3.20;100.00;101614.31;6021318;23;20031;-72
2023/11/22 01:27:56;;;;;;;7.35;4.28;;;;;;;4.30;100.00;101802.16;6028958;23;20025;-74
2023/11/22 01:30:22;;;;;;;5.15;4.85;;;;;;;4.38;100.00;101828.94;5998989;23;20105;-74
2023/11/22 01:32:49;;;;;;;4.72;4.43;;;;;;;3.96;100.00;101783.38;6022263;23;20030;-74
2023/11/22 01:35:15;;;;;;;4.88;4.47;;;;;;;4.52;100.00;101861.75;6012627;23;20579;-74
2023/11/22 01:37:42;;;;;;;7.78;5.65;;;;;;;4.50;100.00;101866.94;6021553;23;20031;-74
2023/11/22 01:40:09;;;;;;;4.70;4.40;;;;;;;4.43;100.00;101848.81;6013814;23;20051;-73
2023/11/22 01:42:36;;;;;;;6.90;6.40;;;;;;;3.93;100.00;101784.25;6016863;23;20095;-73
2023/11/22 01:45:04;;;;;;;5.78;5.28;;;;;;;3.82;100.00;101785.19;6026032;23;20100;-73
2023/11/22 01:47:31;;;;;;;5.85;5.35;;;;;;;4.35;100.00;101869.66;5994915;23;20024;-74
2023/11/22 01:49:58;;;;;;;5.93;5.43;;;;;;;2.99;100.00;101655.09;6019372;23;20015;-74
2023/11/22 01:52:25;;;;;;;5.20;4.90;;;;;;;3.69;100.00;101789.59;6023554;23;20461;-74
2023/11/22 01:54:52;;;;;;;4.88;4.55;;;;;;;4.24;100.00;101887.94;6002366;23;20080;-73
2023/11/22 01:57:20;;;;;;;4.18;3.97;;;;;;;4.19;100.00;101895.78;5999767;23;20094;-73
2023/11/22 01:59:47;;;;;;;5.18;4.78;;;;;;;3.83;100.00;101829.34;6018473;23;20091;-73
2023/11/22 02:02:14;;;;;;;5.45;4.85;;;;;;;3.90;100.00;101858.72;5970167;23;20080;-73
2023/11/22 02:04:40;;;;;;;7.13;5.63;;;;;;;3.43;100.00;101803.59;6019358;23;20489;-73
2023/11/22 02:07:07;;;;;;;6.30;5.13;;;;;;;4.02;100.00;101936.56;5998253;23;20061;-73
2023/11/22 02:09:33;;;;;;;5.47;5.07;;;;;;;3.96;100.00;101934.00;6029668;23;20041;-73
2023/11/22 02:12:00;;;;;;;6.38;4.60;;;;;;;3.83;100.00;101932.31;6019781;23;20038;-73
2023/11/22 02:14:26;;;;;;;6.30;5.90;;;;;;;3.42;100.00;101878.84;6022197;23;20019;-75
2023/11/22 02:16:53;;;;;;;5.47;5.05;;;;;;;3.92;100.00;101968.66;6023347;23;20037;-73
2023/11/22 02:19:19;;;;;;;5.38;5.07;;;;;;;3.14;100.00;101863.38;6023293;23;20707;-75
2023/11/22 02:21:47;;;;;;;4.53;4.22;;;;;;;3.82;100.00;101983.41;5999670;23;20031;-73
2023/11/22 02:24:13;;;;;;;4.50;4.25;;;;;;;4.04;100.00;101999.75;6026626;23;20516;-72
2023/11/22 02:26:45;;;;;;;7.95;6.63;;;;;;;3.46;100.00;101885.75;5998173;23;20033;-74
2023/11/22 02:29:12;;;;;;;4.78;4.47;;;;;;;2.68;100.00;101765.81;6005386;23;20040;-74
2023/11/22 02:31:41;;;;;;;5.35;4.85;;;;;;;3.95;100.00;101963.47;5994854;23;20031;-74
2023/11/22 02:34:07;;;;;;;3.78;3.58;;;;;;;4.10;100.00;101988.50;6020228;23;20093;-73
2023/11/22 02:36:33;;;;;;;6.55;6.10;;;;;;;3.16;100.00;101836.53;6000615;23;20641;-74
2023/11/22 02:39:00;;;;;;;4.45;4.20;;;;;;;3.47;100.00;101884.88;6025493;23;20040;-73
2023/11/22 02:41:29;;;;;;;6.40;5.10;;;;;;;3.98;100.00;101995.44;6025918;23;20042;-74
2023/11/22 02:43:56;;;;;;;4.88;4.57;;;;;;;3.65;100.00;101935.84;6020304;23;20038;-73
2023/11/22 02:46:23;;;;;;;5.82;5.30;;;;;;;3.88;100.00;101983.38;6024889;23;20450;-75
2023/11/22 02:48:50;;;;;;;13.48;3.97;;;;;;;3.22;100.00;101897.06;5995439;23;20019;-73
2023/11/22 02:51:17;;;;;;;4.80;4.50;;;;;;;3.74;100.00;101991.22;6023862;23;20023;-73
2023/11/22 02:53:45;;;;;;;4.63;4.32;;;;;;;3.58;100.00;101980.00;6025841;23;20102;-73
2023/11/22 02:56:12;;;;;;;4.57;3.75;;;;;;;3.34;100.00;101944.59;6014808;23;22217;-74
2023/11/22 02:58:38;;;;;;;6.85;6.30;;;;;;;3.59;100.00;102012.91;5997602;23;20022;-73
2023/11/22 03:01:05;;;;;;;4.25;4.03;;;;;;;3.36;100.00;101975.72;5995314;23;20019;-74
2023/11/22 03:03:31;;;;;;;9.13;5.13;;;;;;;2.92;100.00;101922.19;6023857;23;20023;-74
2023/11/22 03:06:00;;;;;;;5.40;5.05;;;;;;;3.48;100.00;102031.94;5971461;23;20043;-73
2023/11/22 03:08:27;;;;;;;6.07;5.78;;;;;;;3.46;100.00;102031.94;6020439;23;20019;-75
2023/11/22 03:10:53;;;;;;;4.80;4.50;;;;;;;2.90;100.00;101960.22;6019070;23;20434;-74
2023/11/22 03:13:20;;;;;;;4.55;4.25;;;;;;;3.35;100.00;102057.91;5997637;23;20102;-73
2023/11/22 03:15:46;;;;;;;4.45;4.22;;;;;;;3.05;100.00;102027.66;6026366;23;20026;-75
2023/11/22 03:18:13;;;;;;;6.15;5.55;;;;;;;3.34;100.00;102076.91;6008874;23;20037;-75
2023/11/22 03:20:43;;;;;;;8.40;7.03;;;;;;;3.17;100.00;102055.31;6014727;23;20081;-74
2023/11/22 03:23:12;;;;;;;5.60;5.20;;;;;;;2.77;100.00;101983.53;6008710;23;20041;-74
2023/11/22 03:25:39;;;;;;;5.90;5.30;;;;;;;3.31;100.00;102086.47;6018621;23;20022;-75
2023/11/22 03:28:06;;;;;;;7.60;4.95;;;;;;;2.01;100.00;101872.91;6025941;23;20412;-73
2023/11/22 03:30:34;;;;;;;6.88;6.43;;;;;;;3.26;100.00;102101.16;5994669;23;20138;-73
2023/11/22 03:33:01;;;;;;;4.72;4.43;;;;;;;2.83;100.00;102033.66;6028061;23;20026;-74
2023/11/22 03:35:28;;;;;;;4.32;4.07;;;;;;;2.79;100.00;102036.25;6025059;23;20031;-74
2023/11/22 03:37:55;;;;;;;4.90;4.60;;;;;;;3.09;100.00;102093.34;6024170;23;20523;-74
2023/11/22 03:40:21;;;;;;;7.55;6.00;;;;;;;2.91;100.00;102058.75;5994971;23;20107;-75
2023/11/22 03:42:48;;;;;;;7.72;4.90;;;;;;;2.79;100.00;102045.78;6019151;23;20073;-73
2023/11/22 03:45:14;;;;;;;6.28;5.40;;;;;;;2.75;100.00;102069.97;6034630;23;20103;-74
2023/11/22 03:47:41;;;;;;;6.13;5.55;;;;;;;3.04;100.00;102116.66;5976190;23;20027;-73
2023/11/22 03:50:08;;;;;;;4.50;4.20;;;;;;;2.86;100.00;102099.34;6023188;23;20015;-72
2023/11/22 03:52:34;;;;;;;6.70;5.75;;;;;;;2.79;100.00;102089.84;5994126;23;20073;-73
2023/11/22 03:55:01;;;;;;;5.82;5.13;;;;;;;2.98;100.00;102129.63;6021070;23;20073;-73
2023/11/22 03:57:27;;;;;;;5.97;4.72;;;;;;;2.92;100.00;102127.88;5994662;23;20096;-74
2023/11/22 03:59:53;;;;;;;5.32;4.93;;;;;;;2.65;100.00;102092.38;6002298;23;20030;-73
2023/11/22 04:02:20;;;;;;;4.05;3.85;;;;;;;2.85;100.00;102130.47;6016058;23;20035;-75
2023/11/22 04:04:47;;;;;;;6.28;4.88;;;;;;;2.59;100.00;102106.19;5996997;23;20031;-74
2023/11/22 04:07:13;;;;;;;5.05;4.65;;;;;;;2.77;100.00;102144.28;6014940;23;20031;-73
2023/11/22 04:09:40;;;;;;;7.47;5.28;;;;;;;2.67;100.00;102145.09;5996603;23;20139;-73
2023/11/22 04:12:06;;;;;;;4.57;4.22;;;;;;;2.18;100.00;102090.47;6026863;23;20025;-74
2023/11/22 04:14:33;;;;;;;6.82;6.35;;;;;;;2.47;100.00;102142.41;5991711;23;20715;-74
2023/11/22 04:16:59;;;;;;;5.75;5.15;;;;;;;2.42;100.00;102153.63;5995038;23;20018;-74
2023/11/22 04:19:26;;;;;;;5.75;5.30;;;;;;;2.05;100.00;102105.06;5970651;23;20038;-73
2023/11/22 04:21:54;;;;;;;4.57;4.28;;;;;;;2.30;100.00;102160.44;6003017;23;20019;-73
2023/11/22 04:24:20;;;;;;;4.28;4.07;;;;;;;2.37;100.00;102190.72;6022296;23;20019;-74
2023/11/22 04:26:47;;;;;;;5.63;5.20;;;;;;;2.23;100.00;102182.00;5993047;23;20073;-73
2023/11/22 04:29:16;;;;;;;5.93;5.45;;;;;;;2.37;100.00;102216.63;5997121;23;20054;-74
2023/11/22 04:31:42;;;;;;;4.40;4.15;;;;;;;2.20;100.00;102192.34;6006997;23;20029;-73
2023/11/22 04:34:09;;;;;;;5.03;4.45;;;;;;;1.77;100.00;102129.91;6022969;23;20023;-73
2023/11/22 04:36:35;;;;;;;6.80;6.18;;;;;;;1.75;100.00;102131.63;6004108;23;20034;-73
2023/11/22 04:39:03;;;;;;;5.22;4.93;;;;;;;2.39;100.00;102245.16;6011732;23;20029;-73
2023/11/22 04:41:29;;;;;;;4.60;4.25;;;;;;;2.35;100.00;102244.25;6003471;23;20073;-72
2023/11/22 04:43:56;;;;;;;4.35;4.05;;;;;;;1.42;100.00;102099.44;6021156;23;20027;-73
2023/11/22 04:46:22;;;;;;;5.00;4.60;;;;;;;1.99;100.00;102196.53;6004797;23;20090;-74
2023/11/22 04:48:51;;;;;;;3.63;3.42;;;;;;;1.62;100.00;102140.16;6018400;23;20691;-74
2023/11/22 04:51:17;;;;;;;5.38;4.90;;;;;;;1.72;100.00;102155.75;6016264;23;20057;-73
2023/11/22 04:53:44;;;;;;;4.38;3.97;;;;;;;1.72;100.00;102160.06;5996712;23;20055;-73
2023/11/22 04:56:11;;;;;;;3.92;3.72;;;;;;;1.56;100.00;102125.44;6023795;23;20490;-74
2023/11/22 04:58:37;;;;;;;5.28;4.88;;;;;;;2.12;100.00;102236.31;6019349;23;20039;-73
2023/11/22 05:01:04;;;;;;;4.05;3.85;;;;;;;1.87;100.00;102174.88;6022806;23;20038;-73
2023/11/22 05:03:30;;;;;;;5.00;4.53;;;;;;;1.58;100.00;102147.00;5992589;23;20023;-73
2023/11/22 05:05:57;;;;;;;4.15;3.95;;;;;;;1.96;100.00;102193.03;6024131;23;20022;-73
2023/11/22 05:08:23;;;;;;;4.28;4.07;;;;;;;0.88;100.00;102030.88;6015250;23;20025;-75
2023/11/22 05:10:51;;;;;;;3.90;3.63;;;;;;;1.79;100.00;102200.69;5998394;23;20470;-74
2023/11/22 05:13:20;;;;;;;5.80;5.28;;;;;;;1.74;100.00;102207.53;6020896;23;20698;-74
2023/11/22 05:15:47;;;;;;;4.38;4.07;;;;;;;1.98;100.00;102241.41;6019575;23;20094;-73
2023/11/22 05:18:13;;;;;;;4.18;3.88;;;;;;;1.52;100.00;102165.06;6001175;23;20087;-74
2023/11/22 05:20:40;;;;;;;5.40;5.07;;;;;;;1.10;100.00;102104.34;6017929;23;20943;-75
2023/11/22 05:23:06;;;;;;;4.50;4.20;;;;;;;1.91;100.00;102252.56;5995438;23;20498;-73
2023/11/22 05:25:33;;;;;;;3.78;3.58;;;;;;;1.30;100.00;102174.34;6023705;23;20033;-73
2023/11/22 05:27:59;;;;;;;4.93;4.63;;;;;;;1.88;100.00;102267.19;5995513;23;20545;-74
2023/11/22 05:30:26;;;;;;;4.93;4.70;;;;;;;1.29;100.00;102172.63;6021333;23;20087;-73
2023/11/22 05:32:52;;;;;;;5.68;5.22;;;;;;;1.03;100.00;102142.19;6014798;23;20987;-73
2023/11/22 05:35:19;;;;;;;5.25;4.95;;;;;;;1.25;100.00;102207.94;6002974;23;20082;-73
2023/11/22 05:37:46;;;;;;;4.85;4.45;;;;;;;1.45;100.00;102205.53;6027341;23;20092;-73
2023/11/22 05:40:15;;;;;;;5.63;4.93;;;;;;;2.01;100.00;102297.53;5994759;23;20798;-73
2023/11/22 05:42:42;;;;;;;5.65;5.25;;;;;;;1.61;100.00;102241.94;5999772;23;20768;-74
2023/11/22 05:45:08;;;;;;;4.80;4.45;;;;;;;1.92;100.00;102300.88;6020195;23;20027;-73
2023/11/22 05:47:35;;;;;;;4.22;4.03;;;;;;;1.79;100.00;102302.50;5999243;23;20027;-75
2023/11/22 05:50:02;;;;;;;5.75;5.28;;;;;;;0.34;100.00;102077.69;6022900;23;20023;-74
2023/11/22 05:52:28;;;;;;;7.35;6.60;;;;;;;1.68;100.00;102313.56;5999002;23;20030;-73
2023/11/22 05:54:56;;;;;;;4.55;4.15;;;;;;;1.16;100.00;102224.22;6023363;23;20034;-73
2023/11/22 05:57:22;;;;;;;4.65;4.35;;;;;;;1.54;100.00;102280.69;6020320;23;20039;-73
2023/11/22 05:59:49;;;;;;;4.40;4.20;;;;;;;1.14;100.00;102220.75;6017060;23;20030;-75
2023/11/22 06:02:15;;;;;;;4.13;3.75;;;;;;;1.41;100.00;102267.59;6028182;23;20018;-74
2023/11/22 06:04:42;;;;;;;5.28;4.88;;;;;;;0.54;100.00;102129.59;6015867;23;20517;-74
2023/11/22 06:07:08;;;;;;;4.75;4.45;;;;;;;1.70;100.00;102327.41;5995063;23;20042;-75
2023/11/22 06:09:36;;;;;;;4.20;4.00;;;;;;;1.29;100.00;102265.72;6019875;23;20034;-74
2023/11/22 06:12:02;;;;;;;4.97;4.68;;;;;;;1.09;100.00;102247.41;5994035;23;20025;-74
2023/11/22 06:14:29;;;;;;;5.75;5.35;;;;;;;0.94;100.00;102214.44;5992754;23;20375;-74
2023/11/22 06:16:55;;;;;;;6.60;5.95;;;;;;;1.63;100.00;102330.78;6022578;23;20686;-74
2023/11/22 06:19:22;;;;;;;8.52;5.82;;;;;;;1.66;100.00;102323.03;6003321;23;20030;-75
2023/11/22 06:21:48;;;;;;;5.68;5.28;;;;;;;1.11;100.00;102233.63;5992492;23;20027;-75
2023/11/22 06:24:15;;;;;;;13.68;4.40;;;;;;;1.43;100.00;102289.16;6005076;23;20034;-74
2023/11/22 06:26:43;;;;;;;4.75;4.43;;;;;;;1.23;100.00;102263.06;5991613;23;20105;-74
2023/11/22 06:29:10;;;;;;;5.07;4.68;;;;;;;1.55;100.00;102335.88;6025604;23;20081;-74
2023/11/22 06:31:36;;;;;;;4.00;3.80;;;;;;;0.56;100.00;102205.38;6002532;23;20608;-73
2023/11/22 06:34:03;;;;;;;4.45;4.15;;;;;;;0.17;100.00;102154.03;5994439;23;20601;-74
2023/11/22 06:36:29;;;;;;;7.57;7.00;;;;;;;0.78;100.00;102255.63;6026507;23;20034;-74
2023/11/22 06:38:56;;;;;;;4.43;4.05;;;;;;;1.25;100.00;102331.19;6021868;23;20007;-74
2023/11/22 06:41:22;;;;;;;5.97;4.72;;;;;;;-0.47;100.00;102082.56;6022474;23;20039;-74
2023/11/22 06:43:48;;;;;;;4.82;4.55;;;;;;;0.60;100.00;102250.19;6001297;23;20035;-73
2023/11/22 06:46:16;;;;;;;3.42;3.30;;;;;;;0.41;100.00;102230.13;5980107;23;20035;-73
2023/11/22 06:48:45;;;;;;;4.85;4.55;;;;;;;1.06;100.00;102351.63;6016333;23;20034;-73
2023/11/22 06:51:15;;;;;;;;;;;;;;;1.06;100.00;102363.69;6004518;23;20019;-73
2023/11/22 06:53:42;;;;;;;4.82;4.40;;;;;;;0.24;100.00;102225.59;6016442;23;19910;-74
2023/11/22 06:56:08;;;;;;;9.23;5.10;;;;;;;0.35;100.00;102267.91;6001206;23;20063;-75
2023/11/22 06:58:35;;;;;;;5.20;4.97;;;;;;;0.69;100.00;102304.59;6017230;23;20042;-74
2023/11/22 07:01:01;;;;;;;4.68;4.38;;;;;;;0.87;100.00;102335.00;6026932;23;20045;-74
2023/11/22 07:03:27;;;;;;;4.35;4.07;;;;;;;0.99;100.00;102370.50;5997425;23;20594;-73
2023/11/22 07:05:54;;;;;;;6.53;5.22;;;;;;;0.10;100.00;102258.94;6018173;23;20065;-74
2023/11/22 07:08:21;;;;;;;6.57;5.10;;;;;;;0.85;100.00;102344.44;6014631;23;20030;-75
2023/11/22 07:10:50;;;;;;;4.80;4.53;;;;;;;0.90;100.00;102366.06;6021610;23;20026;-73
2023/11/22 07:13:18;;;;;;;5.22;4.78;;;;;;;0.61;100.00;102326.88;6022283;23;20034;-73
2023/11/22 07:15:44;;;;;;;3.95;3.75;;;;;;;0.68;100.00;102349.38;6022589;23;20066;-71
2023/11/22 07:18:12;;;;;;;5.15;4.75;;;;;;;0.96;100.00;102397.19;5992302;23;20365;-72
2023/11/22 07:20:39;;;;;;;6.00;5.55;;;;;;;0.26;100.00;102284.97;6021709;23;20026;-72
2023/11/22 07:23:06;;;;;;;7.25;5.72;;;;;;;0.36;100.00;102320.41;6001010;23;20035;-72
2023/11/22 07:25:33;;;;;;;5.30;4.70;;;;;;;0.37;100.00;102302.38;6021210;23;20054;-71
2023/11/22 07:28:00;;;;;;;3.92;3.72;;;;;;;1.09;100.00;102416.31;6024621;23;20042;-73
2023/11/22 07:30:32;;;;;;;5.38;5.07;;;;;;;0.71;100.00;102346.81;6013893;23;20062;-72
2023/11/22 07:32:59;;;;;;;3.78;3.55;;;;;;;0.69;100.00;102348.50;5970089;23;20038;-71
2023/11/22 07:35:28;;;;;;;5.60;4.57;;;;;;;1.03;100.00;102405.03;6021549;23;20118;-72
2023/11/22 07:37:54;;;;;;;3.63;3.42;;;;;;;1.13;100.00;102432.75;6025357;23;20035;-72
2023/11/22 07:40:22;;;;;;;5.22;4.78;;;;;;;1.14;100.00;102473.25;6021489;23;20147;-73
2023/11/22 07:42:49;;;;;;;4.75;4.32;;;;;;;1.02;100.00;102440.31;5972242;23;20485;-72
2023/11/22 07:45:16;;;;;;;6.65;5.10;;;;;;;0.97;100.00;102439.41;6025045;23;20049;-71
2023/11/22 07:47:43;;;;;;;7.07;5.32;;;;;;;0.39;100.00;102342.00;5992529;23;20691;-72
2023/11/22 07:50:13;;;;;;;5.35;4.95;;;;;;;0.94;100.00;102429.00;5998986;23;20093;-72
2023/11/22 07:52:41;;;;;;;6.95;6.47;;;;;;;0.46;100.00;102343.00;5996016;23;20031;-72
2023/11/22 07:55:08;;;;;;;3.53;3.42;;;;;;;0.73;100.00;102390.78;5995468;23;20014;-72
2023/11/22 07:57:34;;;;;;;4.53;4.22;;;;;;;1.15;100.00;102454.31;6019903;23;20032;-71
2023/11/22 08:00:04;;;;;;;5.57;5.10;;;;;;;1.18;100.00;102465.59;6012326;23;20003;-72
2023/11/22 08:02:31;;;;;;;5.85;5.55;;;;;;;1.05;100.00;102450.72;5990779;23;20031;-72
2023/11/22 08:05:03;;;;;;;5.85;4.43;;;;;;;0.98;100.00;102404.94;6016548;23;20057;-72
2023/11/22 08:07:29;;;;;;;5.90;5.35;;;;;;;1.21;100.00;102435.44;6025481;23;20070;-71
2023/11/22 08:09:56;;;;;;;4.05;3.67;;;;;;;1.37;100.00;102450.34;6020234;23;20042;-71
2023/11/22 08:12:23;;;;;;;5.78;4.43;;;;;;;0.17;100.00;102265.91;6016090;23;20126;-72
2023/11/22 08:14:49;;;;;;;4.72;4.43;;;;;;;1.38;100.00;102428.78;6007585;23;20035;-71
2023/11/22 08:17:16;;;;;;;4.13;3.92;;;;;;;1.11;100.00;102375.84;6017608;23;20042;-70
2023/11/22 08:19:43;;;;;;;5.05;4.65;;;;;;;1.08;100.00;102354.22;6004398;23;20087;-71
2023/11/22 08:22:09;;;;;;;4.70;4.30;;;;;;;1.48;100.00;102468.59;5995774;23;20095;-72
2023/11/22 08:24:35;;;;;;;6.75;6.28;;;;;;;1.87;100.00;102463.06;6001172;23;20035;-71
2023/11/22 08:27:03;;;;;;;4.88;4.53;;;;;;;1.55;100.00;102391.06;6022302;23;21050;-72
2023/11/22 08:29:31;;;;;;;5.30;4.90;;;;;;;2.11;100.00;102466.81;5993152;23;20624;-71
2023/11/22 08:31:58;;;;;;;4.72;4.43;;;;;;;2.20;100.00;102479.84;6021243;23;20115;-72
2023/11/22 08:34:24;;;;;;;6.35;5.78;;;;;;;2.25;100.00;102480.78;6017793;23;20040;-71
2023/11/22 08:36:51;;;;;;;4.72;4.32;;;;;;;2.34;100.00;102493.81;6023633;23;20042;-71
2023/11/22 08:39:20;;;;;;;4.22;3.88;;;;;;;2.23;100.00;102460.91;6009253;23;20085;-72
2023/11/22 08:41:47;;;;;;;7.68;5.72;;;;;;;2.54;100.00;102499.22;5995456;23;20033;-72
2023/11/22 08:44:13;;;;;;;8.50;5.25;;;;;;;2.44;100.00;102480.97;5995375;23;20023;-72
2023/11/22 08:46:40;;;;;;;5.55;5.22;;;;;;;2.69;100.00;102503.69;5990987;23;20122;-72
2023/11/22 08:49:06;;;;;;;5.20;4.85;;;;;;;2.16;100.00;102415.91;6022102;23;20097;-72
2023/11/22 08:51:33;;;;;;;4.72;4.45;;;;;;;2.68;100.00;102525.28;6000251;23;20042;-73
2023/11/22 08:54:00;;;;;;;6.93;5.65;;;;;;;2.66;100.00;102521.78;6017620;23;20041;-72
2023/11/22 08:56:26;;;;;;;6.80;6.30;;;;;;;1.86;100.00;102388.84;6001403;23;20027;-74
2023/11/22 08:58:54;;;;;;;4.25;4.05;;;;;;;2.67;100.00;102514.91;6016577;23;20149;-75
2023/11/22 09:01:21;;;;;;;5.45;4.97;;;;;;;2.97;100.00;102554.09;6023272;23;21156;-72
2023/11/22 09:03:50;;;;;;;5.85;5.30;;;;;;;1.84;100.00;102358.63;6015897;23;20022;-73
2023/11/22 09:06:17;;;;;;;12.63;5.70;;;;;;;3.17;100.00;102559.44;6015335;23;20059;-72
2023/11/22 09:08:43;;;;;;;7.35;6.38;;;;;;;3.27;100.00;102562.09;5992712;23;20499;-72
2023/11/22 09:11:10;;;;;;;4.38;4.10;;;;;;;3.02;100.00;102510.03;6017261;23;20038;-72
2023/11/22 09:13:36;;;;;;;5.35;5.00;;;;;;;3.40;100.00;102557.03;5998437;23;20641;-72
2023/11/22 09:16:05;;;;;;;5.20;4.80;;;;;;;3.32;100.00;102500.75;6021139;23;20754;-73
2023/11/22 09:18:32;;;;;;;7.10;6.50;;;;;;;2.78;100.00;102368.09;6003586;23;20089;-73
2023/11/22 09:20:58;;;;;;;5.82;5.32;;;;;;;1.45;100.00;102117.59;6025487;23;20026;-70
2023/11/22 09:23:26;;;;;;;6.32;5.88;;;;;;;3.80;100.00;102449.97;5997214;23;20043;-71
2023/11/22 09:25:52;;;;;;;4.40;4.18;;;;;;;4.02;100.00;102422.31;6026664;23;20651;-71
2023/11/22 09:28:19;;;;;;;4.25;3.95;;;;;;;3.91;100.00;102348.69;6010504;23;20003;-71
2023/11/22 09:30:48;;;;;;;6.18;4.60;;;;;;;4.12;100.00;102325.34;6016047;23;20107;-71
2023/11/22 09:33:15;;;;;;;11.82;5.95;;;;;;;3.89;100.00;102224.03;5998771;23;20039;-70
2023/11/22 09:35:44;;;;;;;5.10;4.70;;;;;;;4.38;100.00;102228.31;6016072;23;20085;-71
2023/11/22 09:38:15;;;;;;;5.95;5.38;;;;;;;3.92;100.00;102093.31;5999548;23;20127;-71
2023/11/22 09:40:46;;;;;;;5.82;5.22;;;;;;;4.72;100.00;102151.09;6014829;23;20027;-71
2023/11/22 09:43:17;;;;;;;5.28;4.88;;;;;;;4.52;100.00;102057.56;6023837;23;20023;-72
2023/11/22 09:45:49;;;;;;;6.15;5.55;;;;;;;4.78;100.00;102025.38;5977141;23;20035;-71
2023/11/22 09:48:23;;;;;;;5.65;5.15;;;;;;;4.61;100.00;101947.47;6015828;23;20745;-72
2023/11/22 09:51:20;;;;;;;4.82;4.43;;;;;;;4.93;100.00;101954.13;5994957;23;20041;-71
2023/11/22 09:53:56;;;;;;;4.90;4.45;;;;;;;5.49;100.00;101890.28;6013400;23;20680;-71
2023/11/22 09:56:23;;;;;;;4.97;4.55;;;;;;;5.43;100.00;101827.81;6022093;23;20046;-72
2023/11/22 09:58:56;;;;;;;5.22;4.85;;;;;;;5.47;100.00;101776.59;5962876;23;20077;-70
2023/11/22 10:01:23;;;;;;;4.35;4.15;;;;;;;5.42;100.00;101748.03;6020693;23;20054;-70
2023/11/22 10:03:50;;;;;;;5.05;4.75;;;;;;;5.20;100.00;101630.34;6004558;23;20054;-71
2023/11/22 10:06:17;;;;;;;4.88;4.57;;;;;;;5.56;100.00;101589.84;6017356;23;20038;-71
2023/11/22 10:08:47;;;;;;;5.38;4.95;;;;;;;5.49;100.00;101483.25;6020645;23;20109;-71
2023/11/22 10:11:17;;;;;;;5.88;5.57;;;;;;;5.76;99.76;101388.97;5992322;23;20019;-71
2023/11/22 10:13:48;;;;;;;5.20;4.80;;;;;;;5.65;95.23;101252.91;6024812;23;20458;-71
2023/11/22 10:16:17;;;;;;;4.80;4.50;;;;;;;5.65;94.77;101270.28;6018568;23;20841;-71
2023/11/22 10:18:46;;;;;;;5.60;4.82;;;;;;;5.55;93.32;101223.66;6003703;23;20050;-71
2023/11/22 10:21:24;;;;;;;4.28;4.07;;;;;;;5.82;90.20;101182.22;6022391;23;20025;-71
2023/11/22 10:24:02;;;;;;;5.47;4.05;;;;;;;5.80;84.75;100952.22;6022326;23;20035;-73
2023/11/22 10:26:29;;;;;;;4.20;4.00;;;;;;;5.49;81.24;100773.47;5997595;23;20035;-71
2023/11/22 10:28:57;;;;;;;3.88;3.67;;;;;;;5.49;78.87;100656.34;6021044;23;20236;-71
2023/11/22 10:31:24;;;;;;;4.53;4.20;;;;;;;5.92;78.08;100760.84;5996584;23;20106;-72
2023/11/22 10:33:53;;;;;;;4.28;4.00;;;;;;;5.67;77.94;100739.94;6025096;23;20255;-72
2023/11/22 10:36:21;;;;;;;5.53;4.65;;;;;;;6.00;77.84;100751.06;6021180;23;20035;-72
2023/11/22 10:38:48;;;;;;;4.93;4.55;;;;;;;5.54;76.44;100611.91;6026849;23;20030;-72
2023/11/22 10:41:15;;;;;;;5.25;4.75;;;;;;;6.24;74.07;100608.69;5993409;23;20449;-72
2023/11/22 10:43:44;;;;;;;4.38;4.07;;;;;;;5.42;72.34;100337.31;6025352;23;20023;-72
2023/11/22 10:46:13;;;;;;;5.78;5.47;;;;;;;5.82;73.10;100476.44;5990894;23;20038;-71
2023/11/22 10:48:40;;;;;;;3.85;3.65;;;;;;;5.93;71.76;100484.72;5999697;23;20056;-71
2023/11/22 10:51:12;;;;;;;5.03;4.72;;;;;;;5.84;72.72;100500.66;5998470;23;20031;-71
2023/11/22 10:53:49;;;;;;;4.43;4.22;;;;;;;5.67;73.68;100536.84;6022330;23;20027;-72
2023/11/22 10:56:19;;;;;;;5.75;4.85;;;;;;;5.66;73.57;100561.22;5997454;23;20123;-71
2023/11/22 10:58:49;;;;;;;9.23;4.82;;;;;;;6.19;72.64;100608.88;6015977;23;20038;-71
2023/11/22 11:01:25;;;;;;;4.60;4.30;;;;;;;6.01;71.25;100535.72;6025185;23;20042;-71
2023/11/22 11:03:57;;;;;;;4.20;3.95;;;;;;;6.05;69.12;100413.09;5997196;23;20031;-72
2023/11/22 11:06:28;;;;;;;5.10;4.70;;;;;;;6.00;65.23;100175.41;5995248;23;20117;-71
2023/11/22 11:08:59;;;;;;;4.05;3.85;;;;;;;5.82;63.05;99994.72;5997233;23;20546;-71
2023/11/22 11:11:28;;;;;;;4.32;4.13;;;;;;;6.38;61.43;100024.38;6022115;23;20244;-71
2023/11/22 11:13:55;;;;;;;4.22;4.03;;;;;;;6.23;61.78;100048.50;5992405;23;20023;-72
2023/11/22 11:16:23;;;;;;;4.53;4.30;;;;;;;6.57;63.82;100262.47;6017532;23;20951;-73
2023/11/22 11:18:50;;;;;;;4.30;3.90;;;;;;;6.82;64.54;100359.69;6001205;23;20098;-71
2023/11/22 11:21:18;;;;;;;4.63;4.32;;;;;;;7.12;64.97;100554.06;6015137;23;20364;-71
2023/11/22 11:23:45;;;;;;;3.97;3.78;;;;;;;7.35;65.30;100733.25;6002923;23;20023;-72
2023/11/22 11:26:17;;;;;;;5.78;5.38;;;;;;;7.47;64.39;100755.44;6023444;23;20030;-71
2023/11/22 11:28:49;;;;;;;4.82;4.53;;;;;;;7.27;64.53;100789.28;6001023;23;20090;-71